sensor_id;sensor_type;location;lat;lon;timestamp;pressure;altitude;pressure_sealevel;temperature;humidity
33422;BME280;19763;55.798;37.782;2022-09-23T00:01:31;99467.78;;;11.95;89.90
33422;BME280;19763;55.798;37.782;2022-09-23T00:03:59;99467.78;;;11.95;90.20
33422;BME280;19763;55.798;37.782;2022-09-23T00:06:25;99475.09;;;12.10;89.69
33422;BME280;19763;55.798;37.782;2022-09-23T00:08:54;99475.38;;;12.01;89.24
33422;BME280;19763;55.798;37.782;2022-09-23T00:11:23;99445.53;;;11.56;89.99
33422;BME280;19763;55.798;37.782;2022-09-23T00:13:51;99460.56;;;11.74;90.31
33422;BME280;19763;55.798;37.782;2022-09-23T00:16:22;99462.97;;;11.81;90.61
33422;BME280;19763;55.798;37.782;2022-09-23T00:18:48;99468.94;;;11.83;90.18
33422;BME280;19763;55.798;37.782;2022-09-23T00:21:18;99470.47;;;11.90;89.87
33422;BME280;19763;55.798;37.782;2022-09-23T00:23:44;99466.41;;;11.81;90.53
33422;BME280;19763;55.798;37.782;2022-09-23T00:26:12;99464.53;;;11.86;89.52
33422;BME280;19763;55.798;37.782;2022-09-23T00:28:40;99466.28;;;11.86;89.11
33422;BME280;19763;55.798;37.782;2022-09-23T00:31:08;99471.41;;;11.87;89.93
33422;BME280;19763;55.798;37.782;2022-09-23T00:33:34;99470.66;;;11.84;90.34
33422;BME280;19763;55.798;37.782;2022-09-23T00:36:02;99464.53;;;11.56;90.09
33422;BME280;19763;55.798;37.782;2022-09-23T00:38:28;99465.06;;;11.68;90.84
33422;BME280;19763;55.798;37.782;2022-09-23T00:40:54;99466.16;;;11.61;90.78
33422;BME280;19763;55.798;37.782;2022-09-23T00:43:19;99467.81;;;11.63;90.65
33422;BME280;19763;55.798;37.782;2022-09-23T00:46:01;99468.75;;;11.61;90.68
33422;BME280;19763;55.798;37.782;2022-09-23T00:48:27;99468.78;;;11.59;91.17
33422;BME280;19763;55.798;37.782;2022-09-23T00:50:53;99471.53;;;11.54;91.04
33422;BME280;19763;55.798;37.782;2022-09-23T00:53:21;99477.66;;;11.52;90.75
33422;BME280;19763;55.798;37.782;2022-09-23T00:55:51;99471.59;;;11.51;90.83
33422;BME280;19763;55.798;37.782;2022-09-23T00:58:22;99465.38;;;11.57;90.92
33422;BME280;19763;55.798;37.782;2022-09-23T01:00:49;99477.25;;;11.66;89.84
33422;BME280;19763;55.798;37.782;2022-09-23T01:03:15;99474.97;;;11.55;91.13
33422;BME280;19763;55.798;37.782;2022-09-23T01:05:41;99486.25;;;11.52;91.12
33422;BME280;19763;55.798;37.782;2022-09-23T01:08:09;99469.81;;;11.53;90.52
33422;BME280;19763;55.798;37.782;2022-09-23T01:13:46;99475.34;;;11.71;90.44
33422;BME280;19763;55.798;37.782;2022-09-23T01:30:13;99470.06;;;11.74;90.41
33422;BME280;19763;55.798;37.782;2022-09-23T01:32:46;99473.50;;;11.76;90.27
33422;BME280;19763;55.798;37.782;2022-09-23T01:43:05;99465.63;;;11.49;91.56
33422;BME280;19763;55.798;37.782;2022-09-23T01:45:40;99467.41;;;11.47;91.25
33422;BME280;19763;55.798;37.782;2022-09-23T01:48:12;99478.19;;;11.63;90.94
33422;BME280;19763;55.798;37.782;2022-09-23T01:51:02;99468.03;;;11.55;91.19
33422;BME280;19763;55.798;37.782;2022-09-23T01:56:28;99482.44;;;11.66;90.38
33422;BME280;19763;55.798;37.782;2022-09-23T02:01:43;99480.63;;;11.68;90.74
33422;BME280;19763;55.798;37.782;2022-09-23T02:06:58;99474.56;;;11.69;89.91
33422;BME280;19763;55.798;37.782;2022-09-23T02:09:30;99465.28;;;11.62;90.18
33422;BME280;19763;55.798;37.782;2022-09-23T02:12:02;99483.03;;;11.74;89.61
33422;BME280;19763;55.798;37.782;2022-09-23T02:15:03;99482.06;;;11.78;89.77
33422;BME280;19763;55.798;37.782;2022-09-23T02:17:47;99466.84;;;11.67;90.18
33422;BME280;19763;55.798;37.782;2022-09-23T02:20:20;99464.94;;;11.72;89.45
33422;BME280;19763;55.798;37.782;2022-09-23T02:22:57;99471.69;;;11.78;89.51
33422;BME280;19763;55.798;37.782;2022-09-23T02:25:34;99470.06;;;11.74;89.88
33422;BME280;19763;55.798;37.782;2022-09-23T02:28:13;99467.22;;;11.83;89.53
33422;BME280;19763;55.798;37.782;2022-09-23T02:31:02;99475.09;;;11.80;89.05
33422;BME280;19763;55.798;37.782;2022-09-23T02:36:52;99480.13;;;11.85;89.17
33422;BME280;19763;55.798;37.782;2022-09-23T02:39:22;99470.78;;;11.79;89.45
33422;BME280;19763;55.798;37.782;2022-09-23T02:44:24;99475.63;;;11.91;89.41
33422;BME280;19763;55.798;37.782;2022-09-23T02:46:51;99477.25;;;11.96;88.59
33422;BME280;19763;55.798;37.782;2022-09-23T02:49:31;99474.69;;;11.94;89.01
33422;BME280;19763;55.798;37.782;2022-09-23T02:52:01;99484.84;;;12.02;88.90
33422;BME280;19763;55.798;37.782;2022-09-23T02:54:30;99470.88;;;12.06;89.03
33422;BME280;19763;55.798;37.782;2022-09-23T02:56:59;99459.00;;;11.99;88.57
33422;BME280;19763;55.798;37.782;2022-09-23T02:59:28;99464.94;;;12.02;88.29
33422;BME280;19763;55.798;37.782;2022-09-23T03:02:10;99473.19;;;12.15;89.01
33422;BME280;19763;55.798;37.782;2022-09-23T03:07:27;99474.13;;;12.13;88.89
33422;BME280;19763;55.798;37.782;2022-09-23T03:10:07;99486.16;;;12.15;88.86
33422;BME280;19763;55.798;37.782;2022-09-23T03:18:44;99480.94;;;11.87;88.40
33422;BME280;19763;55.798;37.782;2022-09-23T03:23:42;99485.69;;;12.02;88.83
33422;BME280;19763;55.798;37.782;2022-09-23T03:26:19;99477.16;;;11.99;88.71
33422;BME280;19763;55.798;37.782;2022-09-23T03:28:47;99482.59;;;11.89;88.08
33422;BME280;19763;55.798;37.782;2022-09-23T03:31:15;99487.03;;;11.86;88.78
33422;BME280;19763;55.798;37.782;2022-09-23T03:33:46;99465.84;;;11.71;89.60
33422;BME280;19763;55.798;37.782;2022-09-23T03:36:15;99479.91;;;11.92;89.01
33422;BME280;19763;55.798;37.782;2022-09-23T03:39:04;99471.53;;;11.84;88.91
33422;BME280;19763;55.798;37.782;2022-09-23T03:41:43;99482.63;;;11.88;88.98
33422;BME280;19763;55.798;37.782;2022-09-23T03:44:12;99485.84;;;11.98;87.74
33422;BME280;19763;55.798;37.782;2022-09-23T03:46:39;99487.69;;;11.92;88.51
33422;BME280;19763;55.798;37.782;2022-09-23T03:49:13;99485.06;;;11.94;88.80
33422;BME280;19763;55.798;37.782;2022-09-23T03:51:40;99480.75;;;11.95;88.63
33422;BME280;19763;55.798;37.782;2022-09-23T03:54:06;99478.16;;;11.95;88.69
33422;BME280;19763;55.798;37.782;2022-09-23T03:56:31;99474.72;;;11.92;87.89
33422;BME280;19763;55.798;37.782;2022-09-23T03:58:57;99472.97;;;11.95;88.36
33422;BME280;19763;55.798;37.782;2022-09-23T04:01:22;99466.63;;;12.03;88.43
33422;BME280;19763;55.798;37.782;2022-09-23T04:03:48;99463.00;;;12.09;88.38
33422;BME280;19763;55.798;37.782;2022-09-23T04:06:13;99451.69;;;12.12;87.96
33422;BME280;19763;55.798;37.782;2022-09-23T04:08:39;99449.91;;;12.12;88.23
33422;BME280;19763;55.798;37.782;2022-09-23T04:11:05;99462.06;;;12.12;87.86
33422;BME280;19763;55.798;37.782;2022-09-23T04:13:31;99442.38;;;12.04;86.71
33422;BME280;19763;55.798;37.782;2022-09-23T04:15:56;99450.41;;;11.97;87.40
33422;BME280;19763;55.798;37.782;2022-09-23T04:18:22;99458.53;;;12.13;87.18
33422;BME280;19763;55.798;37.782;2022-09-23T04:20:48;99456.47;;;12.24;87.65
33422;BME280;19763;55.798;37.782;2022-09-23T04:23:13;99461.25;;;12.09;86.57
33422;BME280;19763;55.798;37.782;2022-09-23T04:25:46;99456.97;;;12.08;86.21
33422;BME280;19763;55.798;37.782;2022-09-23T04:28:12;99460.25;;;12.14;85.48
33422;BME280;19763;55.798;37.782;2022-09-23T04:30:39;99454.72;;;12.24;85.99
33422;BME280;19763;55.798;37.782;2022-09-23T04:33:12;99443.47;;;12.24;85.64
33422;BME280;19763;55.798;37.782;2022-09-23T04:35:38;99454.84;;;12.21;85.68
33422;BME280;19763;55.798;37.782;2022-09-23T04:38:05;99446.63;;;12.34;85.61
33422;BME280;19763;55.798;37.782;2022-09-23T04:40:31;99444.13;;;12.31;84.86
33422;BME280;19763;55.798;37.782;2022-09-23T04:42:57;99447.50;;;12.34;85.24
33422;BME280;19763;55.798;37.782;2022-09-23T04:45:23;99434.09;;;12.47;84.91
33422;BME280;19763;55.798;37.782;2022-09-23T04:47:48;99427.41;;;12.39;82.78
33422;BME280;19763;55.798;37.782;2022-09-23T04:50:14;99422.97;;;12.43;83.26
33422;BME280;19763;55.798;37.782;2022-09-23T04:52:40;99403.09;;;12.42;83.40
33422;BME280;19763;55.798;37.782;2022-09-23T04:55:06;99417.25;;;12.58;82.89
33422;BME280;19763;55.798;37.782;2022-09-23T04:57:32;99417.25;;;12.58;83.40
33422;BME280;19763;55.798;37.782;2022-09-23T04:59:59;99409.47;;;12.58;83.78
33422;BME280;19763;55.798;37.782;2022-09-23T05:02:25;99409.72;;;12.51;82.37
33422;BME280;19763;55.798;37.782;2022-09-23T05:04:52;99401.88;;;12.52;82.80
33422;BME280;19763;55.798;37.782;2022-09-23T05:07:18;99414.72;;;12.57;82.63
33422;BME280;19763;55.798;37.782;2022-09-23T05:09:44;99434.34;;;12.66;82.82
33422;BME280;19763;55.798;37.782;2022-09-23T05:12:10;99424.50;;;12.74;83.07
33422;BME280;19763;55.798;37.782;2022-09-23T05:14:36;99427.28;;;12.69;82.74
33422;BME280;19763;55.798;37.782;2022-09-23T05:17:04;99440.38;;;12.66;81.18
33422;BME280;19763;55.798;37.782;2022-09-23T05:19:29;99433.91;;;12.78;82.54
33422;BME280;19763;55.798;37.782;2022-09-23T05:21:55;99431.69;;;12.67;81.03
33422;BME280;19763;55.798;37.782;2022-09-23T05:24:20;99425.84;;;12.60;80.81
33422;BME280;19763;55.798;37.782;2022-09-23T05:26:47;99428.91;;;12.72;80.93
33422;BME280;19763;55.798;37.782;2022-09-23T05:29:12;99423.94;;;12.66;80.27
33422;BME280;19763;55.798;37.782;2022-09-23T05:31:38;99412.91;;;12.59;80.12
33422;BME280;19763;55.798;37.782;2022-09-23T05:34:04;99414.19;;;12.47;80.49
33422;BME280;19763;55.798;37.782;2022-09-23T05:36:33;99398.78;;;12.41;81.84
33422;BME280;19763;55.798;37.782;2022-09-23T05:38:58;99400.75;;;12.59;81.74
33422;BME280;19763;55.798;37.782;2022-09-23T05:41:25;99421.03;;;12.48;81.34
33422;BME280;19763;55.798;37.782;2022-09-23T05:43:52;99427.16;;;12.47;81.65
33422;BME280;19763;55.798;37.782;2022-09-23T05:46:20;99430.34;;;12.55;81.76
33422;BME280;19763;55.798;37.782;2022-09-23T05:48:47;99423.72;;;12.72;82.09
33422;BME280;19763;55.798;37.782;2022-09-23T05:53:41;99419.38;;;12.98;82.24
33422;BME280;19763;55.798;37.782;2022-09-23T05:56:14;99433.78;;;12.81;81.74
33422;BME280;19763;55.798;37.782;2022-09-23T05:58:40;99434.81;;;12.77;82.04
33422;BME280;19763;55.798;37.782;2022-09-23T06:01:15;99415.97;;;12.70;81.03
33422;BME280;19763;55.798;37.782;2022-09-23T06:03:45;99437.72;;;12.68;82.64
33422;BME280;19763;55.798;37.782;2022-09-23T06:06:12;99437.72;;;12.68;81.79
33422;BME280;19763;55.798;37.782;2022-09-23T06:08:43;99432.94;;;12.55;81.81
33422;BME280;19763;55.798;37.782;2022-09-23T06:11:09;99437.72;;;12.68;81.91
33422;BME280;19763;55.798;37.782;2022-09-23T06:13:37;99439.44;;;12.69;82.09
33422;BME280;19763;55.798;37.782;2022-09-23T06:16:08;99445.97;;;12.54;82.15
33422;BME280;19763;55.798;37.782;2022-09-23T06:18:34;99440.38;;;12.66;81.60
33422;BME280;19763;55.798;37.782;2022-09-23T06:21:01;99435.19;;;12.66;82.36
33422;BME280;19763;55.798;37.782;2022-09-23T06:23:27;99419.59;;;12.66;82.68
33422;BME280;19763;55.798;37.782;2022-09-23T06:25:59;99420.81;;;12.56;83.04
33422;BME280;19763;55.798;37.782;2022-09-23T06:28:25;99421.19;;;12.70;83.32
33422;BME280;19763;55.798;37.782;2022-09-23T06:30:56;99416.94;;;12.68;82.17
33422;BME280;19763;55.798;37.782;2022-09-23T06:33:22;99438.94;;;12.57;83.46
33422;BME280;19763;55.798;37.782;2022-09-23T06:35:47;99434.53;;;12.59;83.37
33422;BME280;19763;55.798;37.782;2022-09-23T06:38:13;99423.66;;;12.73;83.76
33422;BME280;19763;55.798;37.782;2022-09-23T06:40:38;99436.72;;;12.72;82.14
33422;BME280;19763;55.798;37.782;2022-09-23T06:43:04;99454.19;;;12.67;82.05
33422;BME280;19763;55.798;37.782;2022-09-23T06:45:29;99458.72;;;12.87;81.96
33422;BME280;19763;55.798;37.782;2022-09-23T06:47:56;99464.72;;;12.89;81.56
33422;BME280;19763;55.798;37.782;2022-09-23T06:50:26;99470.66;;;12.92;81.18
33422;BME280;19763;55.798;37.782;2022-09-23T06:52:53;99457.75;;;12.89;82.03
33422;BME280;19763;55.798;37.782;2022-09-23T06:55:24;99453.94;;;13.00;82.19
33422;BME280;19763;55.798;37.782;2022-09-23T06:57:52;99451.97;;;13.06;81.85
33422;BME280;19763;55.798;37.782;2022-09-23T07:00:18;99439.09;;;13.03;82.20
33422;BME280;19763;55.798;37.782;2022-09-23T07:02:45;99444.94;;;13.10;82.04
33422;BME280;19763;55.798;37.782;2022-09-23T07:05:11;99455.75;;;12.98;81.67
33422;BME280;19763;55.798;37.782;2022-09-23T07:07:36;99443.44;;;13.03;81.99
33422;BME280;19763;55.798;37.782;2022-09-23T07:10:05;99442.31;;;13.10;81.48
33422;BME280;19763;55.798;37.782;2022-09-23T07:12:32;99442.63;;;12.77;80.53
33422;BME280;19763;55.798;37.782;2022-09-23T07:14:58;99446.34;;;12.93;81.01
33422;BME280;19763;55.798;37.782;2022-09-23T07:17:24;99441.91;;;12.97;81.45
33422;BME280;19763;55.798;37.782;2022-09-23T07:19:49;99448.53;;;12.81;79.15
33422;BME280;19763;55.798;37.782;2022-09-23T07:22:22;99441.81;;;12.75;80.78
33422;BME280;19763;55.798;37.782;2022-09-23T07:24:52;99443.44;;;12.77;79.64
33422;BME280;19763;55.798;37.782;2022-09-23T07:27:22;99438.78;;;12.87;80.74
33422;BME280;19763;55.798;37.782;2022-09-23T07:29:48;99437.78;;;12.91;80.39
33422;BME280;19763;55.798;37.782;2022-09-23T07:32:15;99438.69;;;12.90;79.31
33422;BME280;19763;55.798;37.782;2022-09-23T07:34:41;99428.09;;;12.71;79.73
33422;BME280;19763;55.798;37.782;2022-09-23T07:37:08;99434.44;;;12.88;80.21
33422;BME280;19763;55.798;37.782;2022-09-23T07:39:35;99425.97;;;12.83;79.98
33422;BME280;19763;55.798;37.782;2022-09-23T07:42:02;99435.72;;;13.01;80.36
33422;BME280;19763;55.798;37.782;2022-09-23T07:44:29;99433.13;;;13.00;80.57
33422;BME280;19763;55.798;37.782;2022-09-23T07:46:56;99437.78;;;12.91;78.67
33422;BME280;19763;55.798;37.782;2022-09-23T07:49:22;99435.19;;;12.91;78.28
33422;BME280;19763;55.798;37.782;2022-09-23T07:51:48;99432.69;;;12.88;79.36
33422;BME280;19763;55.798;37.782;2022-09-23T07:54:15;99429.88;;;12.94;78.80
33422;BME280;19763;55.798;37.782;2022-09-23T07:56:41;99432.47;;;12.94;78.10
33422;BME280;19763;55.798;37.782;2022-09-23T07:59:10;99436.53;;;13.02;79.35
33422;BME280;19763;55.798;37.782;2022-09-23T08:01:39;99443.22;;;13.09;78.99
33422;BME280;19763;55.798;37.782;2022-09-23T08:04:15;99439.56;;;12.89;78.52
33422;BME280;19763;55.798;37.782;2022-09-23T08:06:56;99433.13;;;13.01;78.65
33422;BME280;19763;55.798;37.782;2022-09-23T08:09:24;99413.03;;;13.05;78.30
33422;BME280;19763;55.798;37.782;2022-09-23T08:11:51;99426.84;;;13.07;76.87
33422;BME280;19763;55.798;37.782;2022-09-23T08:14:17;99440.25;;;13.20;77.88
33422;BME280;19763;55.798;37.782;2022-09-23T08:16:44;99435.78;;;13.23;77.03
33422;BME280;19763;55.798;37.782;2022-09-23T08:19:11;99431.13;;;13.08;76.64
33422;BME280;19763;55.798;37.782;2022-09-23T08:21:38;99421.59;;;13.08;77.20
33422;BME280;19763;55.798;37.782;2022-09-23T08:24:05;99431.53;;;13.21;77.71
33422;BME280;19763;55.798;37.782;2022-09-23T08:26:31;99422.81;;;13.22;76.60
33422;BME280;19763;55.798;37.782;2022-09-23T08:28:59;99424.97;;;13.34;77.70
33422;BME280;19763;55.798;37.782;2022-09-23T08:31:25;99427.66;;;13.33;78.41
33422;BME280;19763;55.798;37.782;2022-09-23T08:33:55;99418.25;;;13.28;77.58
33422;BME280;19763;55.798;37.782;2022-09-23T08:36:21;99422.34;;;13.36;77.20
33422;BME280;19763;55.798;37.782;2022-09-23T08:38:47;99420.53;;;13.38;77.15
33422;BME280;19763;55.798;37.782;2022-09-23T08:44:09;99400.34;;;13.44;76.28
33422;BME280;19763;55.798;37.782;2022-09-23T08:46:52;99401.63;;;13.33;76.98
33422;BME280;19763;55.798;37.782;2022-09-23T08:50:16;99416.91;;;13.42;75.69
33422;BME280;19763;55.798;37.782;2022-09-23T08:52:43;99427.16;;;13.46;75.96
33422;BME280;19763;55.798;37.782;2022-09-23T08:55:13;99412.16;;;13.53;76.22
33422;BME280;19763;55.798;37.782;2022-09-23T09:00:22;99431.22;;;13.54;75.63
33422;BME280;19763;55.798;37.782;2022-09-23T09:02:49;99432.59;;;13.40;74.64
33422;BME280;19763;55.798;37.782;2022-09-23T09:05:22;99426.53;;;13.40;74.87
33422;BME280;19763;55.798;37.782;2022-09-23T09:07:50;99432.13;;;13.53;75.32
33422;BME280;19763;55.798;37.782;2022-09-23T09:10:21;99405.84;;;13.37;75.50
33422;BME280;19763;55.798;37.782;2022-09-23T09:13:05;99415.00;;;13.47;73.70
33422;BME280;19763;55.798;37.782;2022-09-23T09:15:40;99403.44;;;13.30;72.65
33422;BME280;19763;55.798;37.782;2022-09-23T09:18:17;99407.53;;;13.38;71.43
33422;BME280;19763;55.798;37.782;2022-09-23T09:20:59;99383.09;;;13.42;72.50
33422;BME280;19763;55.798;37.782;2022-09-23T09:26:05;99405.75;;;13.62;74.19
33422;BME280;19763;55.798;37.782;2022-09-23T09:28:48;99404.72;;;13.44;72.16
33422;BME280;19763;55.798;37.782;2022-09-23T09:31:33;99409.13;;;13.42;72.50
33422;BME280;19763;55.798;37.782;2022-09-23T09:39:43;99391.91;;;13.38;70.80
33422;BME280;19763;55.798;37.782;2022-09-23T09:42:18;99393.44;;;13.43;70.91
33422;BME280;19763;55.798;37.782;2022-09-23T09:44:51;99375.53;;;13.36;71.39
33422;BME280;19763;55.798;37.782;2022-09-23T09:47:39;99384.03;;;13.63;71.53
33422;BME280;19763;55.798;37.782;2022-09-23T09:50:13;99370.47;;;13.55;71.08
33422;BME280;19763;55.798;37.782;2022-09-23T09:52:43;99378.28;;;13.77;71.30
33422;BME280;19763;55.798;37.782;2022-09-23T09:57:42;99359.81;;;13.83;71.38
33422;BME280;19763;55.798;37.782;2022-09-23T10:08:32;99382.38;;;13.60;67.22
33422;BME280;19763;55.798;37.782;2022-09-23T10:11:28;99384.81;;;13.65;67.34
33422;BME280;19763;55.798;37.782;2022-09-23T10:14:16;99380.97;;;13.75;68.30
33422;BME280;19763;55.798;37.782;2022-09-23T10:16:43;99382.22;;;13.87;68.54
33422;BME280;19763;55.798;37.782;2022-09-23T10:19:13;99381.06;;;13.94;68.46
33422;BME280;19763;55.798;37.782;2022-09-23T10:21:40;99380.50;;;13.86;67.29
33422;BME280;19763;55.798;37.782;2022-09-23T10:24:07;99381.72;;;14.00;69.18
33422;BME280;19763;55.798;37.782;2022-09-23T10:26:43;99380.38;;;14.11;69.89
33422;BME280;19763;55.798;37.782;2022-09-23T10:34:58;99372.56;;;14.11;69.70
33422;BME280;19763;55.798;37.782;2022-09-23T10:37:36;99382.66;;;14.19;69.05
33422;BME280;19763;55.798;37.782;2022-09-23T10:40:39;99379.69;;;14.28;67.95
33422;BME280;19763;55.798;37.782;2022-09-23T10:46:40;99377.16;;;14.27;68.69
33422;BME280;19763;55.798;37.782;2022-09-23T10:49:54;99369.41;;;14.25;68.90
33422;BME280;19763;55.798;37.782;2022-09-23T10:53:01;99376.22;;;14.28;67.79
33422;BME280;19763;55.798;37.782;2022-09-23T11:06:33;99338.38;;;14.19;67.25
33422;BME280;19763;55.798;37.782;2022-09-23T11:33:36;99322.75;;;14.40;66.47
33422;BME280;19763;55.798;37.782;2022-09-23T11:36:08;99307.31;;;14.14;64.69
33422;BME280;19763;55.798;37.782;2022-09-23T11:38:41;99323.41;;;14.24;65.69
33422;BME280;19763;55.798;37.782;2022-09-23T11:41:26;99309.78;;;14.18;65.92
33422;BME280;19763;55.798;37.782;2022-09-23T11:43:58;99311.63;;;14.15;66.59
33422;BME280;19763;55.798;37.782;2022-09-23T11:47:09;99319.25;;;14.20;66.18
33422;BME280;19763;55.798;37.782;2022-09-23T11:49:29;99302.19;;;14.13;65.96
33422;BME280;19763;55.798;37.782;2022-09-23T11:54:41;99288.59;;;14.27;66.86
33422;BME280;19763;55.798;37.782;2022-09-23T11:57:21;99289.50;;;14.26;65.54
33422;BME280;19763;55.798;37.782;2022-09-23T11:59:57;99297.91;;;14.32;65.83
33422;BME280;19763;55.798;37.782;2022-09-23T12:02:40;99320.03;;;14.43;64.91
33422;BME280;19763;55.798;37.782;2022-09-23T12:05:17;99307.28;;;14.37;66.31
33422;BME280;19763;55.798;37.782;2022-09-23T12:10:52;99303.41;;;14.45;67.18
33422;BME280;19763;55.798;37.782;2022-09-23T12:14:14;99309.81;;;14.38;65.09
33422;BME280;19763;55.798;37.782;2022-09-23T12:29:58;99323.66;;;14.39;64.48
33422;BME280;19763;55.798;37.782;2022-09-23T12:32:26;99306.28;;;14.39;65.10
33422;BME280;19763;55.798;37.782;2022-09-23T12:34:52;99298.13;;;14.26;64.96
33422;BME280;19763;55.798;37.782;2022-09-23T12:37:32;99311.16;;;14.26;64.55
33422;BME280;19763;55.798;37.782;2022-09-23T12:40:05;99283.03;;;14.35;66.15
33422;BME280;19763;55.798;37.782;2022-09-23T12:42:32;99293.91;;;14.44;66.17
33422;BME280;19763;55.798;37.782;2022-09-23T12:47:42;99279.53;;;14.36;68.15
33422;BME280;19763;55.798;37.782;2022-09-23T12:56:16;99290.84;;;14.55;67.31
33422;BME280;19763;55.798;37.782;2022-09-23T13:01:17;99281.84;;;14.42;67.07
33422;BME280;19763;55.798;37.782;2022-09-23T13:03:54;99273.72;;;14.29;65.73
33422;BME280;19763;55.798;37.782;2022-09-23T13:06:41;99284.59;;;14.39;67.99
33422;BME280;19763;55.798;37.782;2022-09-23T13:09:22;99275.81;;;14.41;68.34
33422;BME280;19763;55.798;37.782;2022-09-23T13:11:51;99286.59;;;14.53;68.95
33422;BME280;19763;55.798;37.782;2022-09-23T13:14:21;99267.78;;;14.46;68.54
33422;BME280;19763;55.798;37.782;2022-09-23T13:16:49;99272.47;;;14.38;68.03
33422;BME280;19763;55.798;37.782;2022-09-23T13:26:51;99275.50;;;14.28;68.97
33422;BME280;19763;55.798;37.782;2022-09-23T13:29:40;99275.72;;;14.22;67.80
33422;BME280;19763;55.798;37.782;2022-09-23T13:32:15;99272.88;;;14.28;68.50
33422;BME280;19763;55.798;37.782;2022-09-23T13:35:01;99269.09;;;14.36;69.53
33422;BME280;19763;55.798;37.782;2022-09-23T13:37:30;99270.88;;;14.35;68.73
33422;BME280;19763;55.798;37.782;2022-09-23T13:40:21;99276.19;;;14.32;69.34
33422;BME280;19763;55.798;37.782;2022-09-23T13:42:57;99279.78;;;14.29;69.05
33422;BME280;19763;55.798;37.782;2022-09-23T13:45:26;99269.16;;;14.34;70.13
33422;BME280;19763;55.798;37.782;2022-09-23T13:47:54;99253.09;;;14.24;70.50
33422;BME280;19763;55.798;37.782;2022-09-23T13:50:24;99264.28;;;14.26;70.16
33422;BME280;19763;55.798;37.782;2022-09-23T13:52:52;99249.19;;;14.14;69.28
33422;BME280;19763;55.798;37.782;2022-09-23T13:57:56;99251.94;;;14.11;68.99
33422;BME280;19763;55.798;37.782;2022-09-23T14:00:22;99254.41;;;14.14;68.77
33422;BME280;19763;55.798;37.782;2022-09-23T14:02:49;99244.13;;;14.11;69.93
33422;BME280;19763;55.798;37.782;2022-09-23T14:05:22;99239.09;;;14.06;69.42
33422;BME280;19763;55.798;37.782;2022-09-23T14:07:49;99241.91;;;14.02;68.88
33422;BME280;19763;55.798;37.782;2022-09-23T14:10:18;99238.91;;;13.90;68.53
33422;BME280;19763;55.798;37.782;2022-09-23T14:12:46;99233.69;;;13.90;68.63
33422;BME280;19763;55.798;37.782;2022-09-23T14:15:14;99246.44;;;13.96;68.93
33422;BME280;19763;55.798;37.782;2022-09-23T14:17:49;99239.63;;;13.94;68.94
33422;BME280;19763;55.798;37.782;2022-09-23T14:20:18;99236.91;;;13.97;69.91
33422;BME280;19763;55.798;37.782;2022-09-23T14:22:44;99233.69;;;13.90;70.81
33422;BME280;19763;55.798;37.782;2022-09-23T14:25:15;99224.59;;;13.80;70.57
33422;BME280;19763;55.798;37.782;2022-09-23T14:27:41;99232.47;;;13.78;69.55
33422;BME280;19763;55.798;37.782;2022-09-23T14:30:15;99234.81;;;13.85;70.29
33422;BME280;19763;55.798;37.782;2022-09-23T14:32:44;99235.00;;;13.80;70.15
33422;BME280;19763;55.798;37.782;2022-09-23T14:35:20;99228.38;;;13.73;70.61
33422;BME280;19763;55.798;37.782;2022-09-23T14:37:48;99216.47;;;13.67;70.74
33422;BME280;19763;55.798;37.782;2022-09-23T14:40:52;99211.31;;;13.66;71.41
33422;BME280;19763;55.798;37.782;2022-09-23T14:43:38;99219.69;;;13.72;71.30
33422;BME280;19763;55.798;37.782;2022-09-23T14:46:04;99220.81;;;13.67;72.08
33422;BME280;19763;55.798;37.782;2022-09-23T14:48:33;99202.44;;;13.49;71.13
33422;BME280;19763;55.798;37.782;2022-09-23T14:51:02;99225.78;;;13.73;71.36
33422;BME280;19763;55.798;37.782;2022-09-23T14:53:33;99217.88;;;13.54;71.53
33422;BME280;19763;55.798;37.782;2022-09-23T14:58:43;99213.25;;;13.60;72.64
33422;BME280;19763;55.798;37.782;2022-09-23T15:06:51;99209.50;;;13.68;72.97
33422;BME280;19763;55.798;37.782;2022-09-23T15:09:24;99203.44;;;13.67;73.56
33422;BME280;19763;55.798;37.782;2022-09-23T15:11:59;99212.09;;;13.68;73.74
33422;BME280;19763;55.798;37.782;2022-09-23T15:14:26;99205.66;;;13.56;73.10
33422;BME280;19763;55.798;37.782;2022-09-23T15:16:53;99208.13;;;13.59;73.08
33422;BME280;19763;55.798;37.782;2022-09-23T15:19:20;99201.16;;;13.39;73.41
33422;BME280;19763;55.798;37.782;2022-09-23T15:21:49;99204.03;;;13.53;72.84
33422;BME280;19763;55.798;37.782;2022-09-23T15:24:35;99211.63;;;13.58;73.09
33422;BME280;19763;55.798;37.782;2022-09-23T15:27:01;99211.69;;;13.56;73.90
33422;BME280;19763;55.798;37.782;2022-09-23T15:29:27;99207.41;;;13.33;73.34
33422;BME280;19763;55.798;37.782;2022-09-23T15:31:53;99213.56;;;13.30;74.70
33422;BME280;19763;55.798;37.782;2022-09-23T15:34:19;99201.22;;;13.37;74.89
33422;BME280;19763;55.798;37.782;2022-09-23T15:36:45;99215.56;;;13.24;75.82
33422;BME280;19763;55.798;37.782;2022-09-23T15:39:12;99215.28;;;13.32;75.09
33422;BME280;19763;55.798;37.782;2022-09-23T15:41:38;99219.63;;;13.31;75.88
33422;BME280;19763;55.798;37.782;2022-09-23T15:44:11;99203.91;;;13.12;74.08
33422;BME280;19763;55.798;37.782;2022-09-23T15:46:37;99217.25;;;13.25;75.87
33422;BME280;19763;55.798;37.782;2022-09-23T15:49:07;99210.28;;;13.27;76.27
33422;BME280;19763;55.798;37.782;2022-09-23T15:51:37;99206.44;;;13.13;75.83
33422;BME280;19763;55.798;37.782;2022-09-23T15:54:07;99191.94;;;13.08;76.06
33422;BME280;19763;55.798;37.782;2022-09-23T15:56:33;99201.91;;;13.19;76.65
33422;BME280;19763;55.798;37.782;2022-09-23T15:58:59;99201.84;;;13.20;75.78
33422;BME280;19763;55.798;37.782;2022-09-23T16:01:26;99202.69;;;13.21;76.23